createdAt,value
2023-03-14T00:01:09.630Z,98863.53
2023-03-14T00:03:36.041Z,98872.03
2023-03-14T00:06:04.035Z,98871.06
2023-03-14T00:08:30.488Z,98876.03
2023-03-14T00:10:58.683Z,98878.47
2023-03-14T00:13:25.688Z,98875.06
2023-03-14T00:15:52.119Z,98866.19
2023-03-14T00:18:20.829Z,98865.34
2023-03-14T00:20:47.298Z,98858.13
2023-03-14T00:23:13.712Z,98857.38
2023-03-14T00:25:40.197Z,98865.75
2023-03-14T00:28:06.607Z,98854.97
2023-03-14T00:30:33.012Z,98858.38
2023-03-14T00:32:59.448Z,98858.38
2023-03-14T00:35:26.054Z,98864.28
2023-03-14T00:37:52.450Z,98872.69
2023-03-14T00:40:18.950Z,98861.19
2023-03-14T00:42:45.390Z,98879.78
2023-03-14T00:45:11.826Z,98878.13
2023-03-14T00:47:38.647Z,98870.47
2023-03-14T00:50:05.579Z,98865.66
2023-03-14T00:52:32.050Z,98871.06
2023-03-14T00:54:58.688Z,98874.75
2023-03-14T00:57:25.179Z,98865.19
2023-03-14T00:59:52.481Z,98877.38
2023-03-14T01:02:18.972Z,98882.44
2023-03-14T01:04:45.517Z,98873.09
2023-03-14T01:07:11.972Z,98894.16
2023-03-14T01:09:38.426Z,98897.84
2023-03-14T01:12:05.186Z,98889.72
2023-03-14T01:14:31.932Z,98896.00
2023-03-14T01:17:01.707Z,98898.38
2023-03-14T01:19:29.306Z,98907.03
2023-03-14T01:21:55.795Z,98902.69
2023-03-14T01:24:22.258Z,98906.13
2023-03-14T01:26:48.699Z,98919.25
2023-03-14T01:29:15.148Z,98915.00
2023-03-14T01:31:41.598Z,98910.53
2023-03-14T01:34:08.093Z,98905.09
2023-03-14T01:36:34.581Z,98903.09
2023-03-14T01:39:00.995Z,98903.44
2023-03-14T01:41:28.132Z,98912.75
2023-03-14T01:43:54.647Z,98912.03
2023-03-14T01:46:27.139Z,98899.31
2023-03-14T01:48:59.538Z,98894.25
2023-03-14T01:51:41.776Z,98889.16
2023-03-14T01:54:28.985Z,98884.81
2023-03-14T01:57:05.834Z,98871.84
2023-03-14T01:59:33.757Z,98873.59
2023-03-14T02:02:00.387Z,98868.41
2023-03-14T02:04:31.202Z,98868.88
2023-03-14T02:07:05.121Z,98869.81
2023-03-14T02:09:31.702Z,98872.31
2023-03-14T02:11:59.291Z,98867.94
2023-03-14T02:14:31.594Z,98874.66
2023-03-14T02:16:58.975Z,98867.72
2023-03-14T02:19:36.878Z,98869.13
2023-03-14T02:22:14.823Z,98873.38
2023-03-14T02:25:08.739Z,98862.97
2023-03-14T02:27:35.950Z,98849.31
2023-03-14T02:30:10.647Z,98850.97
2023-03-14T02:32:40.356Z,98857.91
2023-03-14T02:35:12.328Z,98857.91
2023-03-14T02:37:51.845Z,98863.09
2023-03-14T02:40:18.338Z,98861.47
2023-03-14T02:42:44.802Z,98857.09
2023-03-14T02:45:11.133Z,98855.31
2023-03-14T02:47:43.156Z,98852.72
2023-03-14T02:50:14.027Z,98847.66
2023-03-14T02:52:40.477Z,98841.06
2023-03-14T02:55:07.471Z,98841.28
2023-03-14T02:57:33.864Z,98841.28
2023-03-14T03:00:01.109Z,98835.25
2023-03-14T03:02:30.669Z,98833.50
2023-03-14T03:04:57.070Z,98836.09
2023-03-14T03:07:23.504Z,98837.03
2023-03-14T03:09:49.887Z,98834.56
2023-03-14T03:12:16.311Z,98818.88
2023-03-14T03:14:42.682Z,98822.19
2023-03-14T03:17:09.210Z,98827.47
2023-03-14T03:19:36.225Z,98827.59
2023-03-14T03:22:02.658Z,98825.00
2023-03-14T03:24:29.076Z,98829.97
2023-03-14T03:26:55.853Z,98818.63
2023-03-14T03:29:22.592Z,98815.22
2023-03-14T03:31:48.973Z,98813.31
2023-03-14T03:34:15.866Z,98809.78
2023-03-14T03:36:43.243Z,98817.44
2023-03-14T03:39:09.632Z,98825.72
2023-03-14T03:41:36.085Z,98811.66
2023-03-14T03:44:02.471Z,98802.94
2023-03-14T03:46:28.868Z,98796.91
2023-03-14T03:49:00.022Z,98794.44
2023-03-14T03:51:26.802Z,98796.91
2023-03-14T03:53:53.373Z,98799.63
2023-03-14T03:56:19.797Z,98802.94
2023-03-14T03:58:46.165Z,98794.22
2023-03-14T04:01:12.677Z,98799.41
2023-03-14T04:03:39.977Z,98811.31
2023-03-14T04:06:12.947Z,98804.94
2023-03-14T04:08:41.466Z,98803.88
2023-03-14T04:11:08.236Z,98794.19
2023-03-14T04:13:34.696Z,98804.56
2023-03-14T04:16:01.203Z,98793.13
2023-03-14T04:18:28.449Z,98798.63
2023-03-14T04:20:56.750Z,98805.38
2023-03-14T04:23:25.161Z,98808.81
2023-03-14T04:25:53.042Z,98804.31
2023-03-14T04:28:19.709Z,98805.13
2023-03-14T04:30:46.168Z,98808.44
2023-03-14T04:33:13.675Z,98804.06
2023-03-14T04:35:40.174Z,98799.69
2023-03-14T04:38:06.843Z,98802.41
2023-03-14T04:40:33.313Z,98792.84
2023-03-14T04:42:59.703Z,98788.47
2023-03-14T04:45:26.069Z,98789.06
2023-03-14T04:47:52.449Z,98795.06
2023-03-14T04:50:19.116Z,98789.78
2023-03-14T04:52:45.533Z,98783.63
2023-03-14T04:55:11.994Z,98781.97
2023-03-14T04:57:38.627Z,98788.09
2023-03-14T05:00:08.856Z,98774.31
2023-03-14T05:02:36.109Z,98780.31
2023-03-14T05:05:02.764Z,98778.56
2023-03-14T05:07:29.201Z,98779.50
2023-03-14T05:09:55.627Z,98783.97
2023-03-14T05:12:22.122Z,98783.66
2023-03-14T05:14:48.527Z,98774.81
2023-03-14T05:17:15.511Z,98784.75
2023-03-14T05:19:42.575Z,98781.09
2023-03-14T05:22:09.019Z,98779.72
2023-03-14T05:24:35.514Z,98780.03
2023-03-14T05:27:01.936Z,98768.41
2023-03-14T05:29:28.428Z,98761.91
2023-03-14T05:31:54.871Z,98771.81
2023-03-14T05:34:21.882Z,98769.44
2023-03-14T05:36:48.416Z,98773.00
2023-03-14T05:39:14.793Z,98768.88
2023-03-14T05:41:41.246Z,98765.59
2023-03-14T05:44:07.631Z,98763.00
2023-03-14T05:46:34.076Z,98764.16
2023-03-14T05:49:01.073Z,98766.88
2023-03-14T05:51:27.824Z,98768.88
2023-03-14T05:53:54.208Z,98766.38
2023-03-14T05:56:20.567Z,98760.38
2023-03-14T05:58:47.019Z,98772.53
2023-03-14T06:01:13.511Z,98763.22
2023-03-14T06:03:40.088Z,98771.00
2023-03-14T06:06:06.937Z,98758.97
2023-03-14T06:08:33.392Z,98760.75
2023-03-14T06:10:59.891Z,98760.75
2023-03-14T06:13:26.339Z,98759.81
2023-03-14T06:15:52.871Z,98760.63
2023-03-14T06:18:19.360Z,98765.00
2023-03-14T06:20:45.973Z,98763.78
2023-03-14T06:23:12.581Z,98771.56
2023-03-14T06:25:39.270Z,98766.97
2023-03-14T06:28:05.689Z,98771.25
2023-03-14T06:30:32.220Z,98762.63
2023-03-14T06:32:58.741Z,98779.25
2023-03-14T06:35:25.330Z,98778.31
2023-03-14T06:37:52.208Z,98798.00
2023-03-14T06:40:19.272Z,98818.03
2023-03-14T06:42:46.340Z,98836.09
2023-03-14T06:45:12.946Z,98838.91
2023-03-14T06:47:39.506Z,98851.31
2023-03-14T06:50:11.087Z,98868.84
2023-03-14T06:52:38.183Z,98880.25
2023-03-14T06:55:04.938Z,98884.94
2023-03-14T06:57:31.406Z,98889.22
2023-03-14T06:59:57.853Z,98901.06
2023-03-14T07:02:35.965Z,98912.91
2023-03-14T07:05:06.939Z,98921.38
2023-03-14T07:07:33.672Z,98918.06
2023-03-14T07:10:00.111Z,98924.06
2023-03-14T07:12:26.541Z,98934.75
2023-03-14T07:14:53.014Z,98948.22
2023-03-14T07:17:19.485Z,98947.03
2023-03-14T07:19:45.928Z,98965.25
2023-03-14T07:22:12.359Z,98967.13
2023-03-14T07:24:38.786Z,98968.03
2023-03-14T07:27:05.253Z,98992.91
2023-03-14T07:29:31.683Z,98997.47
2023-03-14T07:31:58.426Z,99008.66
2023-03-14T07:34:24.865Z,99024.19
2023-03-14T07:36:51.358Z,99033.22
2023-03-14T07:39:17.788Z,99034.97
2023-03-14T07:41:44.190Z,99054.34
2023-03-14T07:44:10.637Z,99058.91
2023-03-14T07:46:37.069Z,99071.34
2023-03-14T07:49:03.542Z,99079.50
2023-03-14T07:51:29.984Z,99089.13
2023-03-14T07:53:56.414Z,99100.22
2023-03-14T07:56:22.950Z,99102.19
2023-03-14T07:58:49.442Z,99117.38
2023-03-14T08:01:16.004Z,99120.78
2023-03-14T08:03:42.510Z,99139.44
2023-03-14T08:06:09.023Z,99172.41
2023-03-14T08:08:35.877Z,99194.97
2023-03-14T08:11:07.191Z,99206.47
2023-03-14T08:13:33.676Z,99217.19
2023-03-14T08:16:00.163Z,99231.22
2023-03-14T08:18:26.703Z,99231.03
2023-03-14T08:20:53.123Z,99249.66
2023-03-14T08:23:19.697Z,99262.31
2023-03-14T08:25:46.327Z,99269.47
2023-03-14T08:28:13.904Z,99277.84
2023-03-14T08:30:40.354Z,99291.63
2023-03-14T08:33:06.890Z,99295.47
2023-03-14T08:35:33.408Z,99307.72
2023-03-14T08:37:59.809Z,99317.41
2023-03-14T08:40:26.208Z,99329.97
2023-03-14T08:42:52.619Z,99336.44
2023-03-14T08:45:19.229Z,99352.34
2023-03-14T08:47:46.354Z,99359.06
2023-03-14T08:50:16.248Z,99372.06
2023-03-14T08:52:43.238Z,99383.69
2023-03-14T08:55:10.163Z,99395.25
2023-03-14T08:57:37.316Z,99405.72
2023-03-14T09:00:14.313Z,99421.63
2023-03-14T09:02:41.125Z,99443.72
2023-03-14T09:05:08.541Z,99438.47
2023-03-14T09:07:35.039Z,99442.78
2023-03-14T09:10:01.485Z,99455.28
2023-03-14T09:12:28.016Z,99467.72
2023-03-14T09:14:54.677Z,99476.38
2023-03-14T09:17:21.100Z,99488.22
2023-03-14T09:19:47.481Z,99497.72
2023-03-14T09:22:13.912Z,99497.38
2023-03-14T09:24:41.688Z,99518.06
2023-03-14T09:27:08.769Z,99528.59
2023-03-14T09:29:35.579Z,99528.91
2023-03-14T09:32:02.058Z,99544.34
2023-03-14T09:34:28.506Z,99549.25
2023-03-14T09:36:55.209Z,99549.94
2023-03-14T09:39:21.578Z,99562.41
2023-03-14T09:41:51.605Z,99571.84
2023-03-14T09:44:26.415Z,99583.78
2023-03-14T09:46:55.501Z,99596.44
2023-03-14T09:49:29.830Z,99599.59
2023-03-14T09:51:58.871Z,99606.53
2023-03-14T09:54:53.026Z,99615.44
2023-03-14T09:57:22.728Z,99632.47
2023-03-14T09:59:51.219Z,99642.31
2023-03-14T10:02:23.295Z,99645.16
2023-03-14T10:04:52.618Z,99656.91
2023-03-14T10:07:26.346Z,99659.75
2023-03-14T10:09:52.829Z,99665.44
2023-03-14T10:12:20.227Z,99686.28
2023-03-14T10:14:54.630Z,99692.97
2023-03-14T10:17:21.562Z,99701.97
2023-03-14T10:19:58.129Z,99718.50
2023-03-14T10:22:29.809Z,99735.72
2023-03-14T10:25:00.234Z,99741.72
2023-03-14T10:30:05.897Z,99760.88
2023-03-14T10:32:38.795Z,99762.78
2023-03-14T10:35:10.110Z,99770.03
2023-03-14T10:37:36.819Z,99787.31
2023-03-14T10:40:06.708Z,99804.59
2023-03-14T10:42:39.771Z,99809.03
2023-03-14T10:45:23.194Z,99823.44
2023-03-14T10:47:51.378Z,99833.03
2023-03-14T10:50:32.191Z,99846.09
2023-03-14T10:53:06.299Z,99863.75
2023-03-14T10:55:43.934Z,99874.97
2023-03-14T10:58:32.629Z,99891.84
2023-03-14T11:01:18.121Z,99902.56
2023-03-14T11:03:53.336Z,99910.78
2023-03-14T11:06:32.680Z,99917.06
2023-03-14T11:09:21.995Z,99922.84
2023-03-14T11:11:49.150Z,99938.34
2023-03-14T11:14:42.304Z,99940.03
2023-03-14T11:17:17.036Z,99945.59
2023-03-14T11:19:52.315Z,99957.44
2023-03-14T11:22:42.062Z,99968.06
2023-03-14T11:25:22.251Z,99976.84
2023-03-14T11:28:27.283Z,99987.84
2023-03-14T11:30:56.381Z,99981.16
2023-03-14T11:33:28.352Z,99999.44
2023-03-14T11:36:10.137Z,100006.00
2023-03-14T11:38:51.586Z,100011.25
2023-03-14T11:41:26.288Z,100015.53
2023-03-14T11:43:58.080Z,100027.91
2023-03-14T11:46:28.042Z,100037.38
2023-03-14T11:49:09.802Z,100037.22
2023-03-14T11:51:46.960Z,100049.53
2023-03-14T11:54:47.706Z,100055.34
2023-03-14T11:57:18.382Z,100056.00
2023-03-14T11:59:57.415Z,100062.88
2023-03-14T12:02:32.694Z,100062.97
2023-03-14T12:05:36.527Z,100073.94
2023-03-14T12:08:12.050Z,100082.47
2023-03-14T12:10:51.028Z,100087.97
2023-03-14T12:13:18.732Z,100095.63
2023-03-14T12:15:59.913Z,100105.75
2023-03-14T12:18:35.712Z,100120.72
2023-03-14T12:21:05.612Z,100117.59
2023-03-14T12:23:44.430Z,100113.75
2023-03-14T12:26:13.567Z,100127.56
2023-03-14T12:28:44.580Z,100132.44
2023-03-14T12:31:30.094Z,100137.75
2023-03-14T12:34:05.120Z,100141.78
2023-03-14T12:36:50.414Z,100146.66
2023-03-14T12:39:38.410Z,100149.59
2023-03-14T12:42:43.937Z,100146.78
2023-03-14T12:45:25.271Z,100152.13
2023-03-14T12:48:11.798Z,100161.91
2023-03-14T12:50:45.921Z,100161.75
2023-03-14T12:53:31.574Z,100162.94
2023-03-14T12:56:22.414Z,100173.81
2023-03-14T12:59:05.874Z,100190.56
2023-03-14T13:01:34.792Z,100192.88
2023-03-14T13:04:10.172Z,100203.34
2023-03-14T13:07:00.571Z,100217.00
2023-03-14T13:09:26.965Z,100223.50
2023-03-14T13:12:01.307Z,100224.59
2023-03-14T13:14:30.118Z,100224.34
2023-03-14T13:17:10.447Z,100225.41
2023-03-14T13:19:53.410Z,100237.97
2023-03-14T13:22:32.864Z,100245.00
2023-03-14T13:25:08.367Z,100252.16
2023-03-14T13:27:36.168Z,100244.13
2023-03-14T13:30:15.807Z,100264.75
2023-03-14T13:32:45.320Z,100258.28
2023-03-14T13:35:29.495Z,100273.47
2023-03-14T13:38:10.749Z,100278.75
2023-03-14T13:40:38.745Z,100281.25
2023-03-14T13:43:14.299Z,100289.47
2023-03-14T13:45:51.566Z,100311.84
2023-03-14T13:48:19.337Z,100308.72
2023-03-14T13:50:55.177Z,100309.63
2023-03-14T13:53:22.089Z,100318.84
2023-03-14T13:55:48.642Z,100329.31
2023-03-14T13:58:37.810Z,100336.53
2023-03-14T14:01:18.108Z,100341.59
2023-03-14T14:03:52.075Z,100349.72
2023-03-14T14:06:24.592Z,100353.75
2023-03-14T14:08:51.417Z,100366.59
2023-03-14T14:11:44.939Z,100371.38
2023-03-14T14:14:28.250Z,100381.88
2023-03-14T14:16:55.925Z,100390.09
2023-03-14T14:19:26.152Z,100405.91
2023-03-14T14:21:53.089Z,100402.53
2023-03-14T14:24:23.585Z,100411.16
2023-03-14T14:27:01.275Z,100407.25
2023-03-14T14:29:33.528Z,100425.97
2023-03-14T14:32:09.370Z,100435.72
2023-03-14T14:34:52.616Z,100429.78
2023-03-14T14:37:27.578Z,100449.75
2023-03-14T14:39:58.490Z,100440.09
2023-03-14T14:42:32.516Z,100451.34
2023-03-14T14:44:59.884Z,100463.63
2023-03-14T14:47:28.846Z,100470.25
2023-03-14T14:49:59.586Z,100474.09
2023-03-14T14:52:42.101Z,100481.16
2023-03-14T14:55:21.999Z,100490.72
2023-03-14T14:57:54.560Z,100489.75
2023-03-14T15:00:24.080Z,100491.66
2023-03-14T15:02:55.292Z,100503.72
2023-03-14T15:05:28.056Z,100510.25
2023-03-14T15:07:54.786Z,100526.03
2023-03-14T15:10:24.000Z,100531.34
2023-03-14T15:12:50.671Z,100527.72
2023-03-14T15:15:18.519Z,100534.84
2023-03-14T15:17:45.457Z,100539.03
2023-03-14T15:20:14.831Z,100531.28
2023-03-14T15:22:41.836Z,100541.50
2023-03-14T15:25:12.970Z,100542.31
2023-03-14T15:27:45.176Z,100556.25
2023-03-14T15:30:16.564Z,100558.25
2023-03-14T15:32:43.070Z,100568.59
2023-03-14T15:35:10.475Z,100561.66
2023-03-14T15:37:36.959Z,100572.59
2023-03-14T15:40:12.715Z,100575.31
2023-03-14T15:42:39.307Z,100581.91
2023-03-14T15:45:06.414Z,100593.38
2023-03-14T15:47:33.199Z,100607.22
2023-03-14T15:49:59.838Z,100602.94
2023-03-14T15:52:26.317Z,100600.91
2023-03-14T15:54:52.780Z,100609.44
2023-03-14T15:57:19.215Z,100618.13
2023-03-14T15:59:45.758Z,100628.34
2023-03-14T16:02:12.450Z,100624.31
2023-03-14T16:04:38.859Z,100642.53
2023-03-14T16:07:05.306Z,100634.31
2023-03-14T16:09:32.170Z,100637.06
2023-03-14T16:11:58.863Z,100643.25
2023-03-14T16:14:25.362Z,100642.56
2023-03-14T16:16:53.101Z,100646.25
2023-03-14T16:19:19.527Z,100650.72
2023-03-14T16:21:46.283Z,100652.44
2023-03-14T16:24:12.686Z,100664.44
2023-03-14T16:26:39.122Z,100661.06
2023-03-14T16:29:05.655Z,100675.00
2023-03-14T16:31:32.128Z,100681.69
2023-03-14T16:34:03.516Z,100673.91
2023-03-14T16:36:30.003Z,100683.59
2023-03-14T16:38:56.510Z,100683.69
2023-03-14T16:41:23.255Z,100698.44
2023-03-14T16:43:52.273Z,100691.66
2023-03-14T16:46:19.831Z,100700.28
2023-03-14T16:48:46.470Z,100711.50
2023-03-14T16:51:14.202Z,100716.66
2023-03-14T16:53:40.857Z,100729.69
2023-03-14T16:56:08.313Z,100734.84
2023-03-14T16:58:35.447Z,100732.88
2023-03-14T17:01:10.130Z,100739.94
2023-03-14T17:03:39.115Z,100742.88
2023-03-14T17:06:05.896Z,100749.69
2023-03-14T17:08:32.377Z,100749.47
2023-03-14T17:10:59.039Z,100749.47
2023-03-14T17:13:25.911Z,100754.84
2023-03-14T17:15:56.729Z,100763.81
2023-03-14T17:18:24.538Z,100764.78
2023-03-14T17:20:51.965Z,100767.41
2023-03-14T17:23:18.791Z,100774.47
2023-03-14T17:25:50.301Z,100770.31
2023-03-14T17:28:17.614Z,100784.28
2023-03-14T17:30:44.629Z,100781.00
2023-03-14T17:33:11.631Z,100793.19
2023-03-14T17:35:38.550Z,100783.81
2023-03-14T17:38:05.342Z,100794.28
2023-03-14T17:40:32.433Z,100801.38
2023-03-14T17:42:58.826Z,100805.66
2023-03-14T17:45:25.272Z,100815.31
2023-03-14T17:47:51.807Z,100819.09
2023-03-14T17:50:18.420Z,100836.44
2023-03-14T17:52:44.872Z,100838.22
2023-03-14T17:55:12.069Z,100835.81
2023-03-14T17:57:40.238Z,100841.13
2023-03-14T18:00:11.221Z,100844.69
2023-03-14T18:02:37.762Z,100845.69
2023-03-14T18:05:04.589Z,100849.19
2023-03-14T18:07:34.887Z,100851.75
2023-03-14T18:10:02.024Z,100856.19
2023-03-14T18:12:28.895Z,100870.03
2023-03-14T18:14:55.361Z,100880.50
2023-03-14T18:17:21.824Z,100881.50
2023-03-14T18:19:48.410Z,100886.88
2023-03-14T18:22:15.964Z,100887.88
2023-03-14T18:24:42.481Z,100901.66
2023-03-14T18:27:09.103Z,100900.88
2023-03-14T18:29:36.816Z,100903.34
2023-03-14T18:32:03.283Z,100904.25
2023-03-14T18:34:29.813Z,100905.97
2023-03-14T18:36:56.204Z,100915.47
2023-03-14T18:39:22.650Z,100916.38
2023-03-14T18:41:49.032Z,100919.00
2023-03-14T18:44:15.534Z,100922.53
2023-03-14T18:46:42.499Z,100921.75
2023-03-14T18:49:10.776Z,100926.13
2023-03-14T18:51:37.183Z,100926.25
2023-03-14T18:54:09.831Z,100934.06
2023-03-14T18:56:39.153Z,100940.16
2023-03-14T18:59:05.858Z,100944.50
2023-03-14T19:01:34.133Z,100938.59
2023-03-14T19:04:01.411Z,100943.00
2023-03-14T19:06:28.691Z,100942.09
2023-03-14T19:08:55.165Z,100941.22
2023-03-14T19:11:21.667Z,100936.03
2023-03-14T19:13:48.206Z,100943.81
2023-03-14T19:16:15.773Z,100946.38
2023-03-14T19:18:42.663Z,100944.72
2023-03-14T19:21:12.371Z,100949.88
2023-03-14T19:23:42.371Z,100940.47
2023-03-14T19:26:09.885Z,100943.09
2023-03-14T19:28:36.763Z,100941.41
2023-03-14T19:31:04.843Z,100940.78
2023-03-14T19:33:31.888Z,100941.72
2023-03-14T19:35:58.739Z,100939.25
2023-03-14T19:38:25.209Z,100924.84
2023-03-14T19:40:57.736Z,100927.72
2023-03-14T19:43:24.556Z,100932.31
2023-03-14T19:45:51.108Z,100940.34
2023-03-14T19:48:18.294Z,100936.38
2023-03-14T19:50:44.819Z,100949.44
2023-03-14T19:53:11.413Z,100947.97
2023-03-14T19:55:38.162Z,100951.41
2023-03-14T19:58:05.324Z,100947.03
2023-03-14T20:00:32.017Z,100951.28
2023-03-14T20:02:58.818Z,100954.63
2023-03-14T20:05:25.330Z,100964.88
2023-03-14T20:07:51.952Z,100972.41
2023-03-14T20:10:22.687Z,100965.41
2023-03-14T20:12:50.992Z,100991.03
2023-03-14T20:15:19.645Z,101003.72
2023-03-14T20:17:47.061Z,101021.69
2023-03-14T20:20:13.815Z,101025.00
2023-03-14T20:22:40.787Z,101012.97
2023-03-14T20:25:12.937Z,101018.91
2023-03-14T20:27:41.350Z,101017.06
2023-03-14T20:30:12.697Z,101008.38
2023-03-14T20:32:40.869Z,101005.72
2023-03-14T20:35:09.568Z,101007.53
2023-03-14T20:37:35.931Z,101007.53
2023-03-14T20:40:02.587Z,101011.88
2023-03-14T20:42:29.013Z,101019.41
2023-03-14T20:44:55.499Z,101020.28
2023-03-14T20:47:21.916Z,101029.81
2023-03-14T20:49:48.406Z,101040.13
2023-03-14T20:52:15.458Z,101026.66
2023-03-14T20:54:41.834Z,101036.94
2023-03-14T20:57:08.731Z,101036.13
2023-03-14T20:59:35.210Z,101031.09
2023-03-14T21:02:01.848Z,101026.91
2023-03-14T21:04:28.525Z,101022.78
2023-03-14T21:06:55.110Z,101022.94
2023-03-14T21:09:27.140Z,101029.88
2023-03-14T21:11:53.779Z,101016.09
2023-03-14T21:14:22.367Z,101027.22
2023-03-14T21:16:50.034Z,101019.50
2023-03-14T21:19:16.787Z,101016.13
2023-03-14T21:21:43.177Z,101018.78
2023-03-14T21:24:09.559Z,101023.97
2023-03-14T21:26:36.012Z,101015.41
2023-03-14T21:29:03.074Z,101020.56
2023-03-14T21:31:30.809Z,101017.19
2023-03-14T21:33:57.668Z,101018.88
2023-03-14T21:36:24.117Z,101014.56
2023-03-14T21:38:50.668Z,101009.41
2023-03-14T21:41:17.094Z,101005.09
2023-03-14T21:43:45.681Z,101012.91
2023-03-14T21:46:12.943Z,101020.56
2023-03-14T21:48:39.371Z,101017.94
2023-03-14T21:51:06.811Z,101017.94
2023-03-14T21:53:34.803Z,101016.94
2023-03-14T21:56:01.864Z,101012.59
2023-03-14T21:58:28.411Z,101008.31
2023-03-14T22:01:01.631Z,101008.22
2023-03-14T22:03:28.767Z,101015.03
2023-03-14T22:05:55.177Z,101006.53
2023-03-14T22:08:22.595Z,101007.34
2023-03-14T22:10:53.607Z,101021.88
2023-03-14T22:13:22.727Z,101029.59
2023-03-14T22:15:50.047Z,101032.94
2023-03-14T22:18:18.000Z,101038.84
2023-03-14T22:20:45.208Z,101038.03
2023-03-14T22:23:12.684Z,101052.53
2023-03-14T22:25:43.894Z,101061.00
2023-03-14T22:28:10.831Z,101086.69
2023-03-14T22:30:37.375Z,101098.53
2023-03-14T22:33:04.196Z,101111.31
2023-03-14T22:35:30.568Z,101119.19
2023-03-14T22:37:57.272Z,101135.94
2023-03-14T22:40:23.860Z,101130.81
2023-03-14T22:42:53.655Z,101137.28
2023-03-14T22:45:20.804Z,101144.50
2023-03-14T22:47:47.348Z,101136.31
2023-03-14T22:50:13.846Z,101133.97
2023-03-14T22:52:42.739Z,101133.41
2023-03-14T22:55:09.754Z,101143.00
2023-03-14T22:57:37.187Z,101149.00
2023-03-14T23:00:08.069Z,101155.00
2023-03-14T23:02:34.441Z,101155.94
2023-03-14T23:05:00.899Z,101155.09
2023-03-14T23:07:27.291Z,101150.78
2023-03-14T23:09:53.667Z,101161.91
2023-03-14T23:12:21.587Z,101163.56
2023-03-14T23:14:48.243Z,101167.88
2023-03-14T23:17:14.690Z,101163.69
2023-03-14T23:19:41.123Z,101167.09
2023-03-14T23:22:09.646Z,101155.09
2023-03-14T23:24:36.323Z,101158.50
2023-03-14T23:27:03.327Z,101166.19
2023-03-14T23:29:29.708Z,101173.91
2023-03-14T23:31:56.125Z,101179.94
2023-03-14T23:34:25.169Z,101173.06
2023-03-14T23:36:51.702Z,101168.81
2023-03-14T23:39:18.127Z,101174.94
2023-03-14T23:41:44.799Z,101184.41
2023-03-14T23:44:13.206Z,101183.63
2023-03-14T23:46:40.011Z,101185.38
2023-03-14T23:49:06.516Z,101181.16
2023-03-14T23:51:32.906Z,101191.44
2023-03-14T23:53:59.401Z,101180.31
2023-03-14T23:56:25.819Z,101179.44
2023-03-14T23:58:52.219Z,101173.41
